San Antonio Abad, Spain
Current Conditions -  °F | °C
As of 4:30 AM on Tuesday 21 Oct 2014 (Local Time) from LEIB Reporting Station
Few Clouds Few Clouds  
Wind Chill: 61°   Ceiling: Unl
Heat Index: 61°   Visibility: 6mi
Dew Point: 59°   Wind: 2mph
Humidity: 94%   Direction: NA
Pressure: 30.09"   Gusts: NA
Location:  38.98°N, 1.31°E
Report Text: LEIB 210230Z VRB02KT 9000 FEW005 16/15 Q1019 TEMPO BKN005
Loading
Personal Weather Stations






























Interactive Weather Map
Tropical Storm Tracking
New forecast layout! Learn more

10-Day Weather Forecast

Advertisements
Track Severe Weather on mobile